createdAt,value
2019-03-21T00:01:29.128Z,-0.50
2019-03-21T00:03:58.900Z,-0.50
2019-03-21T00:06:25.271Z,-0.50
2019-03-21T00:08:59.004Z,-0.60
2019-03-21T00:12:03.577Z,-0.60
2019-03-21T00:14:41.708Z,-0.60
2019-03-21T00:17:18.948Z,-0.70
2019-03-21T00:19:47.369Z,-0.70
2019-03-21T00:22:24.246Z,-0.70
2019-03-21T00:24:56.982Z,-0.70
2019-03-21T00:27:24.371Z,-0.80
2019-03-21T00:29:51.830Z,-0.80
2019-03-21T00:32:19.364Z,-0.80
2019-03-21T00:34:47.110Z,-0.90
2019-03-21T00:37:13.490Z,-0.90
2019-03-21T00:39:39.924Z,-0.90
2019-03-21T00:42:07.752Z,-1.00
2019-03-21T00:44:41.341Z,-1.00
2019-03-21T00:47:08.789Z,-1.00
2019-03-21T00:49:43.057Z,-1.00
2019-03-21T00:52:10.870Z,-1.00
2019-03-21T00:54:37.260Z,-1.00
2019-03-21T00:57:03.837Z,-1.00
2019-03-21T00:59:31.264Z,-1.00
2019-03-21T01:01:57.699Z,-1.00
2019-03-21T01:04:26.772Z,-1.00
2019-03-21T01:06:54.441Z,-1.00
2019-03-21T01:09:20.711Z,-1.00
2019-03-21T01:11:47.592Z,-1.00
2019-03-21T01:14:29.689Z,-1.00
2019-03-21T01:16:51.184Z,-1.00
2019-03-21T01:19:17.600Z,-1.00
2019-03-21T01:21:44.011Z,-1.00
2019-03-21T01:24:20.582Z,-0.90
2019-03-21T01:26:47.057Z,-1.00
2019-03-21T01:29:13.828Z,-1.00
2019-03-21T01:31:40.257Z,-0.90
2019-03-21T01:34:08.948Z,-0.90
2019-03-21T01:36:42.809Z,-0.90
2019-03-21T01:39:13.434Z,-0.90
2019-03-21T01:41:51.595Z,-0.90
2019-03-21T01:44:19.096Z,-1.00
2019-03-21T01:46:45.492Z,-1.00
2019-03-21T01:49:13.907Z,-1.00
2019-03-21T01:51:44.014Z,-1.00
2019-03-21T01:54:10.841Z,-1.10
2019-03-21T01:56:39.204Z,-1.00
2019-03-21T01:59:05.957Z,-1.10
2019-03-21T02:01:39.197Z,-1.10
2019-03-21T02:04:05.613Z,-1.00
2019-03-21T02:06:33.125Z,-1.00
2019-03-21T02:08:59.781Z,-1.10
2019-03-21T02:11:27.299Z,-1.10
2019-03-21T02:13:54.744Z,-1.00
2019-03-21T02:16:28.507Z,-1.00
2019-03-21T02:18:55.262Z,-1.10
2019-03-21T02:21:31.778Z,-1.10
2019-03-21T02:23:59.587Z,-1.10
2019-03-21T02:26:27.317Z,-1.10
2019-03-21T02:28:53.727Z,-1.10
2019-03-21T02:31:20.096Z,-1.10
2019-03-21T02:33:46.527Z,-1.10
2019-03-21T02:36:13.933Z,-1.10
2019-03-21T02:38:40.421Z,-1.10
2019-03-21T02:41:14.975Z,-1.10
2019-03-21T02:43:51.687Z,-1.20
2019-03-21T02:46:20.149Z,-1.20
2019-03-21T02:48:47.265Z,-1.20
2019-03-21T02:51:22.952Z,-1.20
2019-03-21T02:53:55.753Z,-1.20
2019-03-21T02:56:24.393Z,-1.20
2019-03-21T02:59:01.604Z,-1.30
2019-03-21T03:01:29.342Z,-1.30
2019-03-21T03:04:04.619Z,-1.30
2019-03-21T03:06:38.117Z,-1.30
2019-03-21T03:09:06.450Z,-1.30
2019-03-21T03:11:32.829Z,-1.30
2019-03-21T03:14:04.197Z,-1.30
2019-03-21T03:16:28.713Z,-1.30
2019-03-21T03:18:55.005Z,-1.30
2019-03-21T03:21:21.352Z,-1.30
2019-03-21T03:23:49.660Z,-1.30
2019-03-21T03:26:16.429Z,-1.30
2019-03-21T03:28:48.156Z,-1.20
2019-03-21T03:31:14.787Z,-1.20
2019-03-21T03:33:46.676Z,-1.30
2019-03-21T03:36:22.126Z,-1.20
2019-03-21T03:38:48.788Z,-1.30
2019-03-21T03:41:17.768Z,-1.30
2019-03-21T03:43:55.918Z,-1.30
2019-03-21T03:46:22.343Z,-1.30
2019-03-21T03:48:56.529Z,-1.30
2019-03-21T03:51:23.368Z,-1.30
2019-03-21T03:53:49.785Z,-1.30
2019-03-21T03:56:18.211Z,-1.30
2019-03-21T03:58:59.421Z,-1.30
2019-03-21T04:01:27.150Z,-1.40
2019-03-21T04:04:00.093Z,-1.40
2019-03-21T04:06:26.780Z,-1.40
2019-03-21T04:08:53.262Z,-1.40
2019-03-21T04:11:25.647Z,-1.40
2019-03-21T04:13:52.021Z,-1.40
2019-03-21T04:16:27.871Z,-1.40
2019-03-21T04:18:58.557Z,-1.40
2019-03-21T04:21:25.987Z,-1.40
2019-03-21T04:23:52.694Z,-1.40
2019-03-21T04:26:23.857Z,-1.40
2019-03-21T04:28:50.294Z,-1.40
2019-03-21T04:31:16.795Z,-1.30
2019-03-21T04:33:45.699Z,-1.40
2019-03-21T04:36:12.377Z,-1.40
2019-03-21T04:38:38.930Z,-1.40
2019-03-21T04:41:05.383Z,-1.30
2019-03-21T04:43:32.068Z,-1.30
2019-03-21T04:46:03.357Z,-1.30
2019-03-21T04:48:26.607Z,-1.30
2019-03-21T04:50:53.087Z,-1.30
2019-03-21T04:53:19.448Z,-1.30
2019-03-21T04:55:45.713Z,-1.30
2019-03-21T04:58:12.062Z,-1.30
2019-03-21T05:00:42.289Z,-1.30
2019-03-21T05:03:14.170Z,-1.30
2019-03-21T05:05:40.823Z,-1.30
2019-03-21T05:08:07.164Z,-1.30
2019-03-21T05:10:33.711Z,-1.30
2019-03-21T05:13:00.091Z,-1.30
2019-03-21T05:15:40.312Z,-1.30
2019-03-21T05:18:26.795Z,-1.30
2019-03-21T05:20:53.435Z,-1.30
2019-03-21T05:23:19.943Z,-1.30
2019-03-21T05:25:47.281Z,-1.20
2019-03-21T05:28:13.957Z,-1.30
2019-03-21T05:30:56.503Z,-1.30
2019-03-21T05:33:22.944Z,-1.30
2019-03-21T05:35:49.298Z,-1.20
2019-03-21T05:38:17.254Z,-1.20
2019-03-21T05:40:43.547Z,-1.20
2019-03-21T05:43:19.461Z,-1.20
2019-03-21T05:45:46.093Z,-1.10
2019-03-21T05:48:12.556Z,-1.10
2019-03-21T05:50:38.971Z,-1.00
2019-03-21T05:53:05.965Z,-1.00
2019-03-21T05:55:32.352Z,-1.00
2019-03-21T05:57:58.711Z,-0.90
2019-03-21T06:00:31.335Z,-0.90
2019-03-21T06:02:57.824Z,-0.80
2019-03-21T06:05:24.981Z,-0.80
2019-03-21T06:07:55.152Z,-0.80
2019-03-21T06:10:21.831Z,-0.80
2019-03-21T06:12:48.302Z,-0.70
2019-03-21T06:15:27.603Z,-0.70
2019-03-21T06:18:00.788Z,-0.60
2019-03-21T06:20:30.976Z,-0.60
2019-03-21T06:23:22.336Z,-0.60
2019-03-21T06:26:26.001Z,-0.50
2019-03-21T06:28:52.366Z,-0.40
2019-03-21T06:31:19.007Z,-0.30
2019-03-21T06:33:45.432Z,-0.30
2019-03-21T06:36:11.710Z,-0.20
2019-03-21T06:38:38.079Z,-0.10
2019-03-21T06:41:04.651Z,0.10
2019-03-21T06:43:32.016Z,0.20
2019-03-21T06:45:58.665Z,0.40
2019-03-21T06:48:25.021Z,0.50
2019-03-21T06:50:52.004Z,0.60
2019-03-21T06:53:18.350Z,0.80
2019-03-21T06:55:45.014Z,1.00
2019-03-21T06:58:11.275Z,1.40
2019-03-21T07:00:37.663Z,1.70
2019-03-21T07:03:04.704Z,2.10
2019-03-21T07:05:31.212Z,2.60
2019-03-21T07:07:57.588Z,3.00
2019-03-21T07:10:24.832Z,3.50
2019-03-21T07:12:52.391Z,3.80
2019-03-21T07:15:19.155Z,4.20
2019-03-21T07:17:45.422Z,4.60
2019-03-21T07:20:12.007Z,5.10
2019-03-21T07:22:38.731Z,5.60
2019-03-21T07:25:07.376Z,6.10
2019-03-21T07:27:33.800Z,6.50
2019-03-21T07:30:00.394Z,6.80
2019-03-21T07:32:33.375Z,7.20
2019-03-21T07:34:55.002Z,7.50
2019-03-21T07:37:21.696Z,8.00
2019-03-21T07:39:48.057Z,8.40
2019-03-21T07:42:14.700Z,8.80
2019-03-21T07:44:41.012Z,9.20
2019-03-21T07:47:12.796Z,9.40
2019-03-21T07:49:35.549Z,9.60
2019-03-21T07:52:02.195Z,9.70
2019-03-21T07:54:28.671Z,10.00
2019-03-21T07:56:55.140Z,10.40
2019-03-21T07:59:21.515Z,10.50
2019-03-21T08:01:48.099Z,10.70
2019-03-21T08:04:14.925Z,10.90
2019-03-21T08:06:41.565Z,10.80
2019-03-21T08:09:08.028Z,11.00
2019-03-21T08:11:34.703Z,11.30
2019-03-21T08:14:00.967Z,11.30
2019-03-21T08:16:28.219Z,11.20
2019-03-21T08:18:54.775Z,11.30
2019-03-21T08:21:21.039Z,11.80
2019-03-21T08:23:47.407Z,12.40
2019-03-21T08:26:13.673Z,12.90
2019-03-21T08:28:40.051Z,13.30
2019-03-21T08:31:10.481Z,13.50
2019-03-21T08:33:36.850Z,13.40
2019-03-21T08:36:03.304Z,12.80
2019-03-21T08:38:29.628Z,12.80
2019-03-21T08:40:56.208Z,12.80
2019-03-21T08:43:22.866Z,13.10
2019-03-21T08:45:49.214Z,13.00
2019-03-21T08:48:15.471Z,13.40
2019-03-21T08:50:41.727Z,13.70
2019-03-21T08:53:08.376Z,13.80
2019-03-21T08:55:34.713Z,13.70
2019-03-21T08:58:01.355Z,13.90
2019-03-21T09:00:34.194Z,13.80
2019-03-21T09:02:56.081Z,14.30
2019-03-21T09:05:22.429Z,14.60
2019-03-21T09:07:48.788Z,14.20
2019-03-21T09:10:15.345Z,14.40
2019-03-21T09:12:42.752Z,14.30
2019-03-21T09:15:09.389Z,14.50
2019-03-21T09:17:36.037Z,14.70
2019-03-21T09:20:04.911Z,15.10
2019-03-21T09:22:31.320Z,15.40
2019-03-21T09:24:57.677Z,16.10
2019-03-21T09:27:24.077Z,16.60
2019-03-21T09:29:53.783Z,17.00
2019-03-21T09:32:18.895Z,17.20
2019-03-21T09:34:45.277Z,17.10
2019-03-21T09:37:11.637Z,16.70
2019-03-21T09:39:38.006Z,16.30
2019-03-21T09:42:04.268Z,16.10
2019-03-21T09:44:30.710Z,15.90
2019-03-21T09:46:57.071Z,15.80
2019-03-21T09:49:23.678Z,15.80
2019-03-21T09:51:50.049Z,15.70
2019-03-21T09:54:16.577Z,15.90
2019-03-21T09:56:42.907Z,15.50
2019-03-21T09:59:09.438Z,15.00
2019-03-21T10:01:35.798Z,15.20
2019-03-21T10:04:02.275Z,15.00
2019-03-21T10:06:28.881Z,15.10
2019-03-21T10:08:55.244Z,14.90
2019-03-21T10:11:21.512Z,14.70
2019-03-21T10:13:47.881Z,14.40
2019-03-21T10:16:14.259Z,14.20
2019-03-21T10:18:40.631Z,14.50
2019-03-21T10:21:07.887Z,14.80
2019-03-21T10:23:34.164Z,15.00
2019-03-21T10:26:00.528Z,14.80
2019-03-21T10:28:26.888Z,14.90
2019-03-21T10:30:53.544Z,14.90
2019-03-21T10:33:19.887Z,14.70
2019-03-21T10:35:46.153Z,14.60
2019-03-21T10:38:12.645Z,14.60
2019-03-21T10:40:39.491Z,14.90
2019-03-21T10:43:06.140Z,14.80
2019-03-21T10:45:32.512Z,14.80
2019-03-21T10:47:58.893Z,15.10
2019-03-21T10:50:33.673Z,14.90
2019-03-21T10:53:00.452Z,15.30
2019-03-21T10:55:27.015Z,15.40
2019-03-21T10:57:53.583Z,15.20
2019-03-21T11:00:19.832Z,15.20
2019-03-21T11:02:47.130Z,15.30
2019-03-21T11:05:13.462Z,15.20
2019-03-21T11:07:40.120Z,15.50
2019-03-21T11:10:06.613Z,15.90
2019-03-21T11:12:33.259Z,16.10
2019-03-21T11:14:59.868Z,16.10
2019-03-21T11:17:26.166Z,16.40
2019-03-21T11:19:52.579Z,16.60
2019-03-21T11:22:19.427Z,16.60
2019-03-21T11:24:46.101Z,16.90
2019-03-21T11:27:13.466Z,17.10
2019-03-21T11:29:41.107Z,17.40
2019-03-21T11:32:07.360Z,17.60
2019-03-21T11:34:33.738Z,17.60
2019-03-21T11:37:00.071Z,17.80
2019-03-21T11:39:27.695Z,17.70
2019-03-21T11:41:54.083Z,18.00
2019-03-21T11:44:20.488Z,18.40
2019-03-21T11:46:46.836Z,19.00
2019-03-21T11:49:13.464Z,19.60
2019-03-21T11:51:40.091Z,19.40
2019-03-21T11:54:06.636Z,19.30
2019-03-21T11:56:32.997Z,19.50
2019-03-21T11:58:59.653Z,19.80
2019-03-21T12:01:25.926Z,19.30
2019-03-21T12:03:52.479Z,19.00
2019-03-21T12:06:18.836Z,19.00
2019-03-21T12:08:45.225Z,19.30
2019-03-21T12:11:11.601Z,19.80
2019-03-21T12:13:37.944Z,19.90
2019-03-21T12:16:04.439Z,19.30
2019-03-21T12:18:30.822Z,19.20
2019-03-21T12:20:57.075Z,18.50
2019-03-21T12:23:23.391Z,18.80
2019-03-21T12:25:49.686Z,19.40
2019-03-21T12:28:16.379Z,20.00
2019-03-21T12:30:42.815Z,20.30
2019-03-21T12:33:09.573Z,20.60
2019-03-21T12:35:35.920Z,21.10
2019-03-21T12:38:03.024Z,21.10
2019-03-21T12:40:29.360Z,20.10
2019-03-21T12:42:55.737Z,19.90
2019-03-21T12:45:22.413Z,19.80
2019-03-21T12:47:48.823Z,19.70
2019-03-21T12:50:15.140Z,20.00
2019-03-21T12:52:41.818Z,20.10
2019-03-21T12:55:08.203Z,19.60
2019-03-21T12:57:34.599Z,19.60
2019-03-21T13:00:01.064Z,19.90
2019-03-21T13:02:32.395Z,19.90
2019-03-21T13:04:57.577Z,20.00
2019-03-21T13:07:23.960Z,20.20
2019-03-21T13:09:50.224Z,20.20
2019-03-21T13:12:16.593Z,19.50
2019-03-21T13:14:44.230Z,19.10
2019-03-21T13:17:10.479Z,19.00
2019-03-21T13:19:37.203Z,19.20
2019-03-21T13:22:03.475Z,19.50
2019-03-21T13:24:29.790Z,19.70
2019-03-21T13:26:56.443Z,19.90
2019-03-21T13:29:25.111Z,20.30
2019-03-21T13:31:52.520Z,20.40
2019-03-21T13:34:18.899Z,20.70
2019-03-21T13:36:45.186Z,21.00
2019-03-21T13:39:11.817Z,20.90
2019-03-21T13:41:38.176Z,20.80
2019-03-21T13:44:04.631Z,20.80
2019-03-21T13:46:30.927Z,20.80
2019-03-21T13:48:57.302Z,20.90
2019-03-21T13:51:25.576Z,20.30
2019-03-21T13:53:51.947Z,20.10
2019-03-21T13:56:18.212Z,20.30
2019-03-21T13:58:46.701Z,20.50
2019-03-21T14:01:13.096Z,20.80
2019-03-21T14:03:39.436Z,21.10
2019-03-21T14:06:05.879Z,21.00
2019-03-21T14:08:32.285Z,20.90
2019-03-21T14:10:58.636Z,20.70
2019-03-21T14:13:25.331Z,20.50
2019-03-21T14:15:51.681Z,20.40
2019-03-21T14:18:18.048Z,20.40
2019-03-21T14:20:44.336Z,20.40
2019-03-21T14:23:16.991Z,20.40
2019-03-21T14:25:38.935Z,20.40
2019-03-21T14:28:05.451Z,20.30
2019-03-21T14:30:31.885Z,20.10
2019-03-21T14:32:58.657Z,20.00
2019-03-21T14:35:26.635Z,19.80
2019-03-21T14:37:53.194Z,19.60
2019-03-21T14:40:19.549Z,19.50
2019-03-21T14:42:46.038Z,19.40
2019-03-21T14:45:16.332Z,19.40
2019-03-21T14:47:42.809Z,19.30
2019-03-21T14:50:12.480Z,19.20
2019-03-21T14:52:39.030Z,18.70
2019-03-21T14:55:09.151Z,18.30
2019-03-21T14:57:35.969Z,18.20
2019-03-21T15:00:19.390Z,18.20
2019-03-21T15:02:46.048Z,18.30
2019-03-21T15:05:14.371Z,18.20
2019-03-21T15:07:40.906Z,18.00
2019-03-21T15:10:12.799Z,17.80
2019-03-21T15:12:39.049Z,17.50
2019-03-21T15:15:10.706Z,17.20
2019-03-21T15:17:37.054Z,16.90
2019-03-21T15:20:09.495Z,16.80
2019-03-21T15:22:35.935Z,16.90
2019-03-21T15:25:04.660Z,16.90
2019-03-21T15:27:44.275Z,16.90
2019-03-21T15:30:19.205Z,16.80
2019-03-21T15:32:46.087Z,16.70
2019-03-21T15:35:15.044Z,16.60
2019-03-21T15:37:41.925Z,16.50
2019-03-21T15:40:15.724Z,16.10
2019-03-21T15:42:42.039Z,15.90
2019-03-21T15:45:22.211Z,15.80
2019-03-21T15:47:43.948Z,15.70
2019-03-21T15:50:28.931Z,15.60
2019-03-21T15:53:07.001Z,15.50
2019-03-21T15:55:33.564Z,15.30
2019-03-21T15:58:04.366Z,15.20
2019-03-21T16:00:39.428Z,15.10
2019-03-21T16:03:07.127Z,15.00
2019-03-21T16:05:34.120Z,14.90
2019-03-21T16:08:00.592Z,14.90
2019-03-21T16:10:27.065Z,14.80
2019-03-21T16:12:53.384Z,14.70
2019-03-21T16:15:20.091Z,14.60
2019-03-21T16:17:46.725Z,14.50
2019-03-21T16:20:13.124Z,14.50
2019-03-21T16:22:39.418Z,14.40
2019-03-21T16:25:06.879Z,14.30
2019-03-21T16:27:35.708Z,14.20
2019-03-21T16:30:05.093Z,14.20
2019-03-21T16:32:31.460Z,14.00
2019-03-21T16:34:58.127Z,14.00
2019-03-21T16:37:24.432Z,13.90
2019-03-21T16:39:51.026Z,13.70
2019-03-21T16:42:17.396Z,13.60
2019-03-21T16:44:47.667Z,13.60
2019-03-21T16:47:14.235Z,13.50
2019-03-21T16:49:40.903Z,13.50
2019-03-21T16:52:07.564Z,13.30
2019-03-21T16:54:33.973Z,13.30
2019-03-21T16:57:00.521Z,13.10
2019-03-21T16:59:28.213Z,13.00
2019-03-21T17:01:54.926Z,12.80
2019-03-21T17:04:22.357Z,12.70
2019-03-21T17:06:48.626Z,12.50
2019-03-21T17:09:15.302Z,12.40
2019-03-21T17:11:41.838Z,12.30
2019-03-21T17:14:08.202Z,12.10
2019-03-21T17:16:34.861Z,12.00
2019-03-21T17:19:01.356Z,11.90
2019-03-21T17:21:28.110Z,11.80
2019-03-21T17:23:54.504Z,11.70
2019-03-21T17:26:20.871Z,11.60
2019-03-21T17:28:47.259Z,11.50
2019-03-21T17:31:13.914Z,11.40
2019-03-21T17:33:40.554Z,11.30
2019-03-21T17:36:07.053Z,11.10
2019-03-21T17:38:33.770Z,11.00
2019-03-21T17:41:00.209Z,10.90
2019-03-21T17:43:26.558Z,10.70
2019-03-21T17:45:52.861Z,10.60
2019-03-21T17:48:19.236Z,10.50
2019-03-21T17:50:45.872Z,10.40
2019-03-21T17:53:12.421Z,10.30
2019-03-21T17:55:38.771Z,10.10
2019-03-21T17:58:05.062Z,10.00
2019-03-21T18:00:35.403Z,9.90
2019-03-21T18:03:03.277Z,9.70
2019-03-21T18:05:34.637Z,9.70
2019-03-21T18:08:01.024Z,9.60
2019-03-21T18:10:29.508Z,9.40
2019-03-21T18:12:56.393Z,9.30
2019-03-21T18:15:24.057Z,9.20
2019-03-21T18:17:50.423Z,9.10
2019-03-21T18:20:16.992Z,9.00
2019-03-21T18:22:45.759Z,8.90
2019-03-21T18:25:11.931Z,8.80
2019-03-21T18:27:38.478Z,8.70
2019-03-21T18:30:06.245Z,8.60
2019-03-21T18:32:32.903Z,8.40
2019-03-21T18:35:01.335Z,8.30
2019-03-21T18:37:27.744Z,8.30
2019-03-21T18:39:54.113Z,8.30
2019-03-21T18:42:21.446Z,8.20
2019-03-21T18:44:50.438Z,8.10
2019-03-21T18:47:16.218Z,8.00
2019-03-21T18:49:42.597Z,7.90
2019-03-21T18:52:09.269Z,7.80
2019-03-21T18:54:35.648Z,7.70
2019-03-21T18:57:01.908Z,7.60
2019-03-21T18:59:28.270Z,7.60
2019-03-21T19:01:58.838Z,7.50
2019-03-21T19:04:22.817Z,7.40
2019-03-21T19:06:49.230Z,7.40
2019-03-21T19:09:15.548Z,7.30
2019-03-21T19:11:42.137Z,7.20
2019-03-21T19:14:08.782Z,7.10
2019-03-21T19:16:35.232Z,7.00
2019-03-21T19:19:01.620Z,6.90
2019-03-21T19:21:27.949Z,6.80
2019-03-21T19:23:55.573Z,6.70
2019-03-21T19:26:21.982Z,6.60
2019-03-21T19:28:48.371Z,6.50
2019-03-21T19:31:15.017Z,6.40
2019-03-21T19:33:41.311Z,6.30
2019-03-21T19:36:08.151Z,6.20
2019-03-21T19:38:35.527Z,6.20
2019-03-21T19:41:02.039Z,6.10
2019-03-21T19:43:29.455Z,6.00
2019-03-21T19:45:58.393Z,6.00
2019-03-21T19:48:24.885Z,5.90
2019-03-21T19:50:53.430Z,5.80
2019-03-21T19:53:19.787Z,5.80
2019-03-21T19:55:46.159Z,5.70
2019-03-21T19:58:12.541Z,5.60
2019-03-21T20:00:39.169Z,5.60
2019-03-21T20:03:05.546Z,5.50
2019-03-21T20:05:32.923Z,5.40
2019-03-21T20:07:59.379Z,5.30
2019-03-21T20:10:25.940Z,5.30
2019-03-21T20:12:52.548Z,5.20
2019-03-21T20:15:19.133Z,5.10
2019-03-21T20:17:45.706Z,5.10
2019-03-21T20:20:16.336Z,5.10
2019-03-21T20:22:42.896Z,5.00
2019-03-21T20:25:09.747Z,5.00
2019-03-21T20:27:36.611Z,4.90
2019-03-21T20:30:09.474Z,4.90
2019-03-21T20:32:35.875Z,4.80
2019-03-21T20:35:06.465Z,4.70
2019-03-21T20:37:32.934Z,4.70
2019-03-21T20:39:59.199Z,4.60
2019-03-21T20:42:25.492Z,4.50
2019-03-21T20:44:52.141Z,4.40
2019-03-21T20:47:18.614Z,4.40
2019-03-21T20:49:45.247Z,4.30
2019-03-21T20:52:11.816Z,4.20
2019-03-21T20:54:39.172Z,4.20
2019-03-21T20:57:05.556Z,4.20
2019-03-21T20:59:32.198Z,4.10
2019-03-21T21:02:03.015Z,4.00
2019-03-21T21:04:26.835Z,4.00
2019-03-21T21:06:54.221Z,4.00
2019-03-21T21:09:20.477Z,3.90
2019-03-21T21:11:47.022Z,3.90
2019-03-21T21:14:13.360Z,3.90
2019-03-21T21:16:39.995Z,3.90
2019-03-21T21:19:06.355Z,3.90
2019-03-21T21:21:32.928Z,3.80
2019-03-21T21:23:59.406Z,3.80
2019-03-21T21:26:25.809Z,3.80
2019-03-21T21:28:52.459Z,3.80
2019-03-21T21:31:19.099Z,3.70
2019-03-21T21:33:45.715Z,3.70
2019-03-21T21:36:21.597Z,3.70
2019-03-21T21:38:40.396Z,3.60
2019-03-21T21:41:07.819Z,3.60
2019-03-21T21:43:34.432Z,3.60
2019-03-21T21:46:00.700Z,3.60
2019-03-21T21:48:27.455Z,3.50
2019-03-21T21:50:53.975Z,3.50
2019-03-21T21:53:20.527Z,3.50
2019-03-21T21:55:46.910Z,3.50
2019-03-21T21:58:13.565Z,3.40
2019-03-21T22:00:39.941Z,3.30
2019-03-21T22:03:06.591Z,3.30
2019-03-21T22:05:33.015Z,3.20
2019-03-21T22:07:59.361Z,3.20
2019-03-21T22:10:25.713Z,3.20
2019-03-21T22:12:52.079Z,3.10
2019-03-21T22:15:18.398Z,3.10
2019-03-21T22:17:45.033Z,3.10
2019-03-21T22:20:12.710Z,3.10
2019-03-21T22:22:39.353Z,3.00
2019-03-21T22:25:06.823Z,3.00
2019-03-21T22:27:34.221Z,3.00
2019-03-21T22:30:00.495Z,3.00
2019-03-21T22:32:27.114Z,3.00
2019-03-21T22:34:53.380Z,3.00
2019-03-21T22:37:20.021Z,3.00
2019-03-21T22:39:46.582Z,3.00
2019-03-21T22:42:13.295Z,2.90
2019-03-21T22:44:39.904Z,2.90
2019-03-21T22:47:06.171Z,2.80
2019-03-21T22:49:32.418Z,2.80
2019-03-21T22:51:59.164Z,2.80
2019-03-21T22:54:25.695Z,2.80
2019-03-21T22:56:52.358Z,2.70
2019-03-21T22:59:18.747Z,2.70
2019-03-21T23:01:45.788Z,2.60
2019-03-21T23:04:12.162Z,2.50
2019-03-21T23:06:38.551Z,2.50
2019-03-21T23:09:06.980Z,2.50
2019-03-21T23:11:33.354Z,2.50
2019-03-21T23:13:59.692Z,2.40
2019-03-21T23:16:25.959Z,2.40
2019-03-21T23:18:53.223Z,2.40
2019-03-21T23:21:19.599Z,2.40
2019-03-21T23:23:46.227Z,2.40
2019-03-21T23:26:12.505Z,2.40
2019-03-21T23:28:39.147Z,2.30
2019-03-21T23:31:05.520Z,2.30
2019-03-21T23:33:32.087Z,2.30
2019-03-21T23:35:58.489Z,2.30
2019-03-21T23:38:25.791Z,2.30
2019-03-21T23:40:52.160Z,2.30
2019-03-21T23:43:18.788Z,2.30
2019-03-21T23:45:45.060Z,2.30
2019-03-21T23:48:11.427Z,2.30
2019-03-21T23:50:37.674Z,2.30
2019-03-21T23:53:04.226Z,2.30
2019-03-21T23:55:30.657Z,2.30
2019-03-21T23:57:56.931Z,2.30
